sensor_id;sensor_type;location;lat;lon;timestamp;P1;durP1;ratioP1;P2;durP2;ratioP2
10493;SDS011;5294;49.410;8.698;2023-02-12T00:01:38;19.87;;;17.77;;
10493;SDS011;5294;49.410;8.698;2023-02-12T00:04:04;19.50;;;16.37;;
10493;SDS011;5294;49.410;8.698;2023-02-12T00:06:30;19.50;;;17.50;;
10493;SDS011;5294;49.410;8.698;2023-02-12T00:08:57;20.20;;;18.03;;
10493;SDS011;5294;49.410;8.698;2023-02-12T00:11:24;19.30;;;16.90;;
10493;SDS011;5294;49.410;8.698;2023-02-12T00:13:50;19.77;;;17.43;;
10493;SDS011;5294;49.410;8.698;2023-02-12T00:16:20;20.10;;;17.70;;
10493;SDS011;5294;49.410;8.698;2023-02-12T00:18:52;18.53;;;16.53;;
10493;SDS011;5294;49.410;8.698;2023-02-12T00:21:21;18.43;;;16.53;;
10493;SDS011;5294;49.410;8.698;2023-02-12T00:23:47;18.40;;;16.47;;
10493;SDS011;5294;49.410;8.698;2023-02-12T00:26:14;18.67;;;16.77;;
10493;SDS011;5294;49.410;8.698;2023-02-12T00:28:42;20.33;;;15.90;;
10493;SDS011;5294;49.410;8.698;2023-02-12T00:31:13;18.07;;;16.17;;
10493;SDS011;5294;49.410;8.698;2023-02-12T00:33:39;18.43;;;15.90;;
10493;SDS011;5294;49.410;8.698;2023-02-12T00:36:06;18.30;;;16.40;;
10493;SDS011;5294;49.410;8.698;2023-02-12T00:38:34;20.13;;;17.93;;
10493;SDS011;5294;49.410;8.698;2023-02-12T00:41:00;19.30;;;17.13;;
10493;SDS011;5294;49.410;8.698;2023-02-12T00:43:26;19.33;;;17.33;;
10493;SDS011;5294;49.410;8.698;2023-02-12T00:45:55;18.03;;;16.23;;
10493;SDS011;5294;49.410;8.698;2023-02-12T00:48:21;19.53;;;17.50;;
10493;SDS011;5294;49.410;8.698;2023-02-12T00:50:47;19.87;;;17.90;;
10493;SDS011;5294;49.410;8.698;2023-02-12T00:53:13;20.20;;;17.67;;
10493;SDS011;5294;49.410;8.698;2023-02-12T00:55:39;21.40;;;18.70;;
10493;SDS011;5294;49.410;8.698;2023-02-12T00:58:05;20.23;;;18.10;;
10493;SDS011;5294;49.410;8.698;2023-02-12T01:00:31;21.43;;;19.13;;
10493;SDS011;5294;49.410;8.698;2023-02-12T01:02:57;21.27;;;19.03;;
10493;SDS011;5294;49.410;8.698;2023-02-12T01:05:25;20.20;;;18.00;;
10493;SDS011;5294;49.410;8.698;2023-02-12T01:07:52;20.30;;;18.23;;
10493;SDS011;5294;49.410;8.698;2023-02-12T01:10:19;20.17;;;18.17;;
10493;SDS011;5294;49.410;8.698;2023-02-12T01:12:46;21.60;;;17.73;;
10493;SDS011;5294;49.410;8.698;2023-02-12T01:15:12;21.10;;;18.63;;
10493;SDS011;5294;49.410;8.698;2023-02-12T01:17:38;20.33;;;18.23;;
10493;SDS011;5294;49.410;8.698;2023-02-12T01:20:05;22.83;;;20.43;;
10493;SDS011;5294;49.410;8.698;2023-02-12T01:22:34;21.30;;;19.10;;
10493;SDS011;5294;49.410;8.698;2023-02-12T01:25:01;21.87;;;19.57;;
10493;SDS011;5294;49.410;8.698;2023-02-12T01:27:27;20.90;;;18.70;;
10493;SDS011;5294;49.410;8.698;2023-02-12T01:29:53;22.00;;;19.80;;
10493;SDS011;5294;49.410;8.698;2023-02-12T01:32:19;20.67;;;18.50;;
10493;SDS011;5294;49.410;8.698;2023-02-12T01:34:45;20.73;;;18.27;;
10493;SDS011;5294;49.410;8.698;2023-02-12T01:37:10;20.33;;;18.33;;
10493;SDS011;5294;49.410;8.698;2023-02-12T01:39:36;20.87;;;18.67;;
10493;SDS011;5294;49.410;8.698;2023-02-12T01:42:02;21.97;;;19.67;;
10493;SDS011;5294;49.410;8.698;2023-02-12T01:44:32;22.03;;;19.83;;
10493;SDS011;5294;49.410;8.698;2023-02-12T01:47:03;22.13;;;19.83;;
10493;SDS011;5294;49.410;8.698;2023-02-12T01:49:39;22.07;;;19.80;;
10493;SDS011;5294;49.410;8.698;2023-02-12T01:52:28;23.00;;;19.60;;
10493;SDS011;5294;49.410;8.698;2023-02-12T01:54:58;21.37;;;19.10;;
10493;SDS011;5294;49.410;8.698;2023-02-12T01:57:27;21.87;;;19.57;;
10493;SDS011;5294;49.410;8.698;2023-02-12T01:59:55;20.87;;;18.67;;
10493;SDS011;5294;49.410;8.698;2023-02-12T02:02:24;20.87;;;18.73;;
10493;SDS011;5294;49.410;8.698;2023-02-12T02:04:54;21.17;;;18.93;;
10493;SDS011;5294;49.410;8.698;2023-02-12T02:07:22;21.83;;;19.53;;
10493;SDS011;5294;49.410;8.698;2023-02-12T02:09:48;21.30;;;19.10;;
10493;SDS011;5294;49.410;8.698;2023-02-12T02:12:14;22.77;;;20.37;;
10493;SDS011;5294;49.410;8.698;2023-02-12T02:14:59;21.70;;;19.50;;
10493;SDS011;5294;49.410;8.698;2023-02-12T02:27:59;22.23;;;19.93;;
10493;SDS011;5294;49.410;8.698;2023-02-12T02:30:36;21.87;;;19.47;;
10493;SDS011;5294;49.410;8.698;2023-02-12T02:33:10;20.80;;;18.67;;
10493;SDS011;5294;49.410;8.698;2023-02-12T02:35:46;22.27;;;19.67;;
10493;SDS011;5294;49.410;8.698;2023-02-12T02:38:21;20.57;;;18.47;;
10493;SDS011;5294;49.410;8.698;2023-02-12T02:43:19;20.77;;;18.57;;
10493;SDS011;5294;49.410;8.698;2023-02-12T02:45:47;20.53;;;18.43;;
10493;SDS011;5294;49.410;8.698;2023-02-12T02:50:49;20.67;;;18.47;;
10493;SDS011;5294;49.410;8.698;2023-02-12T02:53:18;19.67;;;17.57;;
10493;SDS011;5294;49.410;8.698;2023-02-12T02:55:46;20.50;;;18.50;;
10493;SDS011;5294;49.410;8.698;2023-02-12T02:58:16;22.17;;;18.57;;
10493;SDS011;5294;49.410;8.698;2023-02-12T03:03:26;21.57;;;18.97;;
10493;SDS011;5294;49.410;8.698;2023-02-12T03:05:54;20.57;;;17.97;;
10493;SDS011;5294;49.410;8.698;2023-02-12T03:08:27;19.83;;;17.77;;
10493;SDS011;5294;49.410;8.698;2023-02-12T03:11:07;19.10;;;17.10;;
10493;SDS011;5294;49.410;8.698;2023-02-12T03:13:45;21.20;;;18.90;;
10493;SDS011;5294;49.410;8.698;2023-02-12T03:16:32;20.93;;;18.70;;
10493;SDS011;5294;49.410;8.698;2023-02-12T03:19:11;19.63;;;17.57;;
10493;SDS011;5294;49.410;8.698;2023-02-12T03:26:45;21.00;;;18.80;;
10493;SDS011;5294;49.410;8.698;2023-02-12T03:29:14;23.67;;;19.13;;
10493;SDS011;5294;49.410;8.698;2023-02-12T03:34:17;21.73;;;19.60;;
10493;SDS011;5294;49.410;8.698;2023-02-12T03:36:54;20.47;;;18.33;;
10493;SDS011;5294;49.410;8.698;2023-02-12T03:41:49;21.17;;;18.50;;
10493;SDS011;5294;49.410;8.698;2023-02-12T03:49:17;20.80;;;18.60;;
10493;SDS011;5294;49.410;8.698;2023-02-12T03:51:48;19.97;;;17.87;;
10493;SDS011;5294;49.410;8.698;2023-02-12T03:54:15;20.40;;;18.27;;
10493;SDS011;5294;49.410;8.698;2023-02-12T03:56:46;22.17;;;19.60;;
10493;SDS011;5294;49.410;8.698;2023-02-12T03:59:16;23.30;;;20.97;;
10493;SDS011;5294;49.410;8.698;2023-02-12T04:01:44;21.17;;;19.17;;
10493;SDS011;5294;49.410;8.698;2023-02-12T04:04:12;21.57;;;19.37;;
10493;SDS011;5294;49.410;8.698;2023-02-12T04:06:40;20.77;;;18.57;;
10493;SDS011;5294;49.410;8.698;2023-02-12T04:09:08;21.07;;;18.87;;
10493;SDS011;5294;49.410;8.698;2023-02-12T04:24:42;21.63;;;19.37;;
10493;SDS011;5294;49.410;8.698;2023-02-12T04:27:21;20.97;;;18.77;;
10493;SDS011;5294;49.410;8.698;2023-02-12T04:29:52;21.30;;;19.10;;
10493;SDS011;5294;49.410;8.698;2023-02-12T04:35:07;21.43;;;19.13;;
10493;SDS011;5294;49.410;8.698;2023-02-12T04:37:38;20.40;;;18.30;;
10493;SDS011;5294;49.410;8.698;2023-02-12T04:40:08;20.17;;;18.17;;
10493;SDS011;5294;49.410;8.698;2023-02-12T04:45:29;22.20;;;19.93;;
10493;SDS011;5294;49.410;8.698;2023-02-12T04:47:55;20.83;;;18.63;;
10493;SDS011;5294;49.410;8.698;2023-02-12T04:50:24;21.60;;;19.40;;
10493;SDS011;5294;49.410;8.698;2023-02-12T04:52:51;21.83;;;19.57;;
10493;SDS011;5294;49.410;8.698;2023-02-12T04:55:17;21.23;;;19.03;;
10493;SDS011;5294;49.410;8.698;2023-02-12T04:57:43;21.63;;;19.43;;
10493;SDS011;5294;49.410;8.698;2023-02-12T05:00:11;22.10;;;19.83;;
10493;SDS011;5294;49.410;8.698;2023-02-12T05:02:37;21.30;;;19.10;;
10493;SDS011;5294;49.410;8.698;2023-02-12T05:05:03;21.50;;;19.30;;
10493;SDS011;5294;49.410;8.698;2023-02-12T05:07:29;21.20;;;19.00;;
10493;SDS011;5294;49.410;8.698;2023-02-12T05:09:55;20.97;;;18.73;;
10493;SDS011;5294;49.410;8.698;2023-02-12T05:12:21;21.73;;;19.33;;
10493;SDS011;5294;49.410;8.698;2023-02-12T05:14:47;21.30;;;18.53;;
10493;SDS011;5294;49.410;8.698;2023-02-12T05:17:13;21.70;;;19.50;;
10493;SDS011;5294;49.410;8.698;2023-02-12T05:19:39;21.00;;;18.77;;
10493;SDS011;5294;49.410;8.698;2023-02-12T05:22:07;21.80;;;19.60;;
10493;SDS011;5294;49.410;8.698;2023-02-12T05:24:36;21.37;;;19.17;;
10493;SDS011;5294;49.410;8.698;2023-02-12T05:27:02;21.80;;;19.60;;
10493;SDS011;5294;49.410;8.698;2023-02-12T05:29:28;21.00;;;18.83;;
10493;SDS011;5294;49.410;8.698;2023-02-12T05:31:54;20.33;;;18.27;;
10493;SDS011;5294;49.410;8.698;2023-02-12T05:34:20;20.80;;;18.67;;
10493;SDS011;5294;49.410;8.698;2023-02-12T05:36:46;20.80;;;18.60;;
10493;SDS011;5294;49.410;8.698;2023-02-12T05:39:12;21.40;;;19.27;;
10493;SDS011;5294;49.410;8.698;2023-02-12T05:41:40;20.40;;;17.80;;
10493;SDS011;5294;49.410;8.698;2023-02-12T05:44:08;20.30;;;18.20;;
10493;SDS011;5294;49.410;8.698;2023-02-12T05:46:40;21.30;;;19.00;;
10493;SDS011;5294;49.410;8.698;2023-02-12T05:49:07;20.67;;;18.50;;
10493;SDS011;5294;49.410;8.698;2023-02-12T05:51:33;21.63;;;19.30;;
10493;SDS011;5294;49.410;8.698;2023-02-12T05:54:02;22.67;;;20.27;;
10493;SDS011;5294;49.410;8.698;2023-02-12T05:56:32;21.37;;;19.27;;
10493;SDS011;5294;49.410;8.698;2023-02-12T05:59:11;21.37;;;19.27;;
10493;SDS011;5294;49.410;8.698;2023-02-12T06:01:38;20.33;;;18.23;;
10493;SDS011;5294;49.410;8.698;2023-02-12T06:04:05;21.80;;;19.70;;
10493;SDS011;5294;49.410;8.698;2023-02-12T06:06:34;21.77;;;19.57;;
10493;SDS011;5294;49.410;8.698;2023-02-12T06:09:00;22.80;;;19.60;;
10493;SDS011;5294;49.410;8.698;2023-02-12T06:11:27;22.63;;;20.13;;
10493;SDS011;5294;49.410;8.698;2023-02-12T06:13:53;21.63;;;19.30;;
10493;SDS011;5294;49.410;8.698;2023-02-12T06:16:22;21.37;;;19.07;;
10493;SDS011;5294;49.410;8.698;2023-02-12T06:18:48;24.00;;;20.20;;
10493;SDS011;5294;49.410;8.698;2023-02-12T06:21:14;20.67;;;18.60;;
10493;SDS011;5294;49.410;8.698;2023-02-12T06:23:41;21.20;;;19.00;;
10493;SDS011;5294;49.410;8.698;2023-02-12T06:26:09;22.23;;;19.93;;
10493;SDS011;5294;49.410;8.698;2023-02-12T06:28:36;20.57;;;18.40;;
10493;SDS011;5294;49.410;8.698;2023-02-12T06:31:13;21.20;;;19.10;;
10493;SDS011;5294;49.410;8.698;2023-02-12T06:33:41;22.50;;;20.20;;
10493;SDS011;5294;49.410;8.698;2023-02-12T06:36:06;22.63;;;20.10;;
10493;SDS011;5294;49.410;8.698;2023-02-12T06:38:33;22.50;;;20.10;;
10493;SDS011;5294;49.410;8.698;2023-02-12T06:41:02;21.23;;;18.97;;
10493;SDS011;5294;49.410;8.698;2023-02-12T06:43:28;20.13;;;18.03;;
10493;SDS011;5294;49.410;8.698;2023-02-12T06:45:54;21.30;;;19.10;;
10493;SDS011;5294;49.410;8.698;2023-02-12T06:48:22;22.47;;;18.90;;
10493;SDS011;5294;49.410;8.698;2023-02-12T06:50:51;21.90;;;19.53;;
10493;SDS011;5294;49.410;8.698;2023-02-12T06:53:17;21.10;;;18.37;;
10493;SDS011;5294;49.410;8.698;2023-02-12T06:55:42;21.07;;;18.37;;
10493;SDS011;5294;49.410;8.698;2023-02-12T06:58:08;21.67;;;19.53;;
10493;SDS011;5294;49.410;8.698;2023-02-12T07:00:34;22.33;;;19.93;;
10493;SDS011;5294;49.410;8.698;2023-02-12T07:03:03;20.90;;;18.80;;
10493;SDS011;5294;49.410;8.698;2023-02-12T07:05:29;22.67;;;20.07;;
10493;SDS011;5294;49.410;8.698;2023-02-12T07:07:55;21.67;;;19.13;;
10493;SDS011;5294;49.410;8.698;2023-02-12T07:10:21;20.90;;;18.77;;
10493;SDS011;5294;49.410;8.698;2023-02-12T07:12:49;22.23;;;19.83;;
10493;SDS011;5294;49.410;8.698;2023-02-12T07:15:15;21.30;;;19.10;;
10493;SDS011;5294;49.410;8.698;2023-02-12T07:17:41;21.23;;;18.93;;
10493;SDS011;5294;49.410;8.698;2023-02-12T07:20:07;22.87;;;20.23;;
10493;SDS011;5294;49.410;8.698;2023-02-12T07:22:36;23.90;;;20.73;;
10493;SDS011;5294;49.410;8.698;2023-02-12T07:25:02;25.00;;;22.40;;
10493;SDS011;5294;49.410;8.698;2023-02-12T07:27:28;22.97;;;20.53;;
10493;SDS011;5294;49.410;8.698;2023-02-12T07:29:54;23.03;;;20.57;;
10493;SDS011;5294;49.410;8.698;2023-02-12T07:32:22;24.43;;;21.83;;
10493;SDS011;5294;49.410;8.698;2023-02-12T07:34:48;22.03;;;19.70;;
10493;SDS011;5294;49.410;8.698;2023-02-12T07:37:16;21.53;;;19.33;;
10493;SDS011;5294;49.410;8.698;2023-02-12T07:39:46;24.53;;;20.67;;
10493;SDS011;5294;49.410;8.698;2023-02-12T07:42:12;23.23;;;20.83;;
10493;SDS011;5294;49.410;8.698;2023-02-12T07:44:39;22.37;;;19.97;;
10493;SDS011;5294;49.410;8.698;2023-02-12T07:47:07;22.53;;;19.67;;
10493;SDS011;5294;49.410;8.698;2023-02-12T07:49:33;22.73;;;20.20;;
10493;SDS011;5294;49.410;8.698;2023-02-12T07:51:59;21.93;;;19.63;;
10493;SDS011;5294;49.410;8.698;2023-02-12T07:54:25;22.70;;;19.90;;
10493;SDS011;5294;49.410;8.698;2023-02-12T07:56:51;20.87;;;18.17;;
10493;SDS011;5294;49.410;8.698;2023-02-12T07:59:18;21.07;;;18.87;;
10493;SDS011;5294;49.410;8.698;2023-02-12T08:01:45;20.87;;;18.67;;
10493;SDS011;5294;49.410;8.698;2023-02-12T08:04:12;23.43;;;19.53;;
10493;SDS011;5294;49.410;8.698;2023-02-12T08:06:39;22.97;;;19.73;;
10493;SDS011;5294;49.410;8.698;2023-02-12T08:09:09;22.63;;;19.77;;
10493;SDS011;5294;49.410;8.698;2023-02-12T08:11:38;24.10;;;18.77;;
10493;SDS011;5294;49.410;8.698;2023-02-12T08:14:07;22.27;;;18.83;;
10493;SDS011;5294;49.410;8.698;2023-02-12T08:16:37;25.33;;;19.63;;
10493;SDS011;5294;49.410;8.698;2023-02-12T08:19:04;23.37;;;20.87;;
10493;SDS011;5294;49.410;8.698;2023-02-12T08:21:33;20.17;;;18.07;;
10493;SDS011;5294;49.410;8.698;2023-02-12T08:23:59;22.83;;;18.43;;
10493;SDS011;5294;49.410;8.698;2023-02-12T08:26:26;21.87;;;18.50;;
10493;SDS011;5294;49.410;8.698;2023-02-12T08:29:00;22.20;;;19.77;;
10493;SDS011;5294;49.410;8.698;2023-02-12T08:31:28;22.53;;;18.97;;
10493;SDS011;5294;49.410;8.698;2023-02-12T08:33:57;20.13;;;18.03;;
10493;SDS011;5294;49.410;8.698;2023-02-12T08:36:29;21.00;;;18.80;;
10493;SDS011;5294;49.410;8.698;2023-02-12T08:38:58;20.47;;;18.27;;
10493;SDS011;5294;49.410;8.698;2023-02-12T08:41:27;20.90;;;18.70;;
10493;SDS011;5294;49.410;8.698;2023-02-12T08:43:57;24.07;;;19.17;;
10493;SDS011;5294;49.410;8.698;2023-02-12T08:46:24;22.10;;;19.67;;
10493;SDS011;5294;49.410;8.698;2023-02-12T08:48:51;21.30;;;18.60;;
10493;SDS011;5294;49.410;8.698;2023-02-12T08:51:25;22.53;;;18.40;;
10493;SDS011;5294;49.410;8.698;2023-02-12T08:53:55;21.57;;;18.37;;
10493;SDS011;5294;49.410;8.698;2023-02-12T08:56:21;21.03;;;17.50;;
10493;SDS011;5294;49.410;8.698;2023-02-12T08:58:48;21.70;;;19.40;;
10493;SDS011;5294;49.410;8.698;2023-02-12T09:01:17;20.87;;;18.20;;
10493;SDS011;5294;49.410;8.698;2023-02-12T09:03:44;20.57;;;18.20;;
10493;SDS011;5294;49.410;8.698;2023-02-12T09:06:10;19.60;;;17.60;;
10493;SDS011;5294;49.410;8.698;2023-02-12T09:08:39;21.07;;;17.97;;
10493;SDS011;5294;49.410;8.698;2023-02-12T09:11:11;20.60;;;17.97;;
10493;SDS011;5294;49.410;8.698;2023-02-12T09:13:40;19.57;;;17.47;;
10493;SDS011;5294;49.410;8.698;2023-02-12T09:16:07;18.97;;;16.97;;
10493;SDS011;5294;49.410;8.698;2023-02-12T09:18:33;19.57;;;17.57;;
10493;SDS011;5294;49.410;8.698;2023-02-12T09:21:17;19.37;;;17.37;;
10493;SDS011;5294;49.410;8.698;2023-02-12T09:23:46;20.17;;;17.73;;
10493;SDS011;5294;49.410;8.698;2023-02-12T09:26:13;19.10;;;17.17;;
10493;SDS011;5294;49.410;8.698;2023-02-12T09:28:42;19.07;;;16.43;;
10493;SDS011;5294;49.410;8.698;2023-02-12T09:31:12;19.63;;;17.50;;
10493;SDS011;5294;49.410;8.698;2023-02-12T09:33:39;19.30;;;17.17;;
10493;SDS011;5294;49.410;8.698;2023-02-12T09:36:06;20.17;;;17.90;;
10493;SDS011;5294;49.410;8.698;2023-02-12T09:38:33;19.73;;;16.90;;
10493;SDS011;5294;49.410;8.698;2023-02-12T09:43:47;19.10;;;17.10;;
10493;SDS011;5294;49.410;8.698;2023-02-12T09:51:20;19.50;;;17.60;;
10493;SDS011;5294;49.410;8.698;2023-02-12T09:53:50;20.00;;;18.03;;
10493;SDS011;5294;49.410;8.698;2023-02-12T09:56:20;20.20;;;17.50;;
10493;SDS011;5294;49.410;8.698;2023-02-12T09:58:57;21.03;;;18.77;;
10493;SDS011;5294;49.410;8.698;2023-02-12T10:01:26;19.87;;;17.77;;
10493;SDS011;5294;49.410;8.698;2023-02-12T10:03:53;21.27;;;18.97;;
10493;SDS011;5294;49.410;8.698;2023-02-12T10:06:20;20.37;;;18.17;;
10493;SDS011;5294;49.410;8.698;2023-02-12T10:08:56;20.70;;;18.00;;
10493;SDS011;5294;49.410;8.698;2023-02-12T10:14:28;20.40;;;18.17;;
10493;SDS011;5294;49.410;8.698;2023-02-12T10:22:09;20.60;;;18.50;;
10493;SDS011;5294;49.410;8.698;2023-02-12T10:27:15;21.67;;;18.53;;
10493;SDS011;5294;49.410;8.698;2023-02-12T10:29:42;19.67;;;17.57;;
10493;SDS011;5294;49.410;8.698;2023-02-12T10:32:19;19.80;;;17.70;;
10493;SDS011;5294;49.410;8.698;2023-02-12T10:34:49;20.70;;;18.57;;
10493;SDS011;5294;49.410;8.698;2023-02-12T10:39:49;20.20;;;17.87;;
10493;SDS011;5294;49.410;8.698;2023-02-12T10:42:20;21.17;;;18.97;;
10493;SDS011;5294;49.410;8.698;2023-02-12T10:44:51;18.40;;;16.50;;
10493;SDS011;5294;49.410;8.698;2023-02-12T10:47:17;18.80;;;16.40;;
10493;SDS011;5294;49.410;8.698;2023-02-12T10:49:44;18.13;;;16.23;;
10493;SDS011;5294;49.410;8.698;2023-02-12T10:54:46;15.50;;;13.67;;
10493;SDS011;5294;49.410;8.698;2023-02-12T10:57:17;13.73;;;12.33;;
10493;SDS011;5294;49.410;8.698;2023-02-12T10:59:44;12.47;;;11.07;;
10493;SDS011;5294;49.410;8.698;2023-02-12T11:05:21;11.53;;;10.43;;
10493;SDS011;5294;49.410;8.698;2023-02-12T11:07:48;7.83;;;7.03;;
10493;SDS011;5294;49.410;8.698;2023-02-12T11:10:19;7.80;;;7.10;;
10493;SDS011;5294;49.410;8.698;2023-02-12T11:12:45;6.50;;;5.90;;
10493;SDS011;5294;49.410;8.698;2023-02-12T11:15:14;4.97;;;4.57;;
10493;SDS011;5294;49.410;8.698;2023-02-12T11:17:41;6.33;;;5.73;;
10493;SDS011;5294;49.410;8.698;2023-02-12T11:25:18;4.77;;;4.37;;
10493;SDS011;5294;49.410;8.698;2023-02-12T11:27:44;5.00;;;4.60;;
10493;SDS011;5294;49.410;8.698;2023-02-12T11:30:16;5.40;;;4.90;;
10493;SDS011;5294;49.410;8.698;2023-02-12T11:32:43;5.80;;;5.20;;
10493;SDS011;5294;49.410;8.698;2023-02-12T11:35:14;5.80;;;5.30;;
10493;SDS011;5294;49.410;8.698;2023-02-12T11:37:52;5.70;;;5.10;;
10493;SDS011;5294;49.410;8.698;2023-02-12T11:40:22;5.53;;;5.13;;
10493;SDS011;5294;49.410;8.698;2023-02-12T11:42:59;5.40;;;4.90;;
10493;SDS011;5294;49.410;8.698;2023-02-12T11:45:34;5.20;;;4.80;;
10493;SDS011;5294;49.410;8.698;2023-02-12T11:48:01;5.40;;;5.00;;
10493;SDS011;5294;49.410;8.698;2023-02-12T11:50:28;5.23;;;4.80;;
10493;SDS011;5294;49.410;8.698;2023-02-12T11:53:03;6.07;;;5.47;;
10493;SDS011;5294;49.410;8.698;2023-02-12T11:55:33;5.00;;;4.60;;
10493;SDS011;5294;49.410;8.698;2023-02-12T11:58:02;5.30;;;4.90;;
10493;SDS011;5294;49.410;8.698;2023-02-12T12:00:31;5.23;;;4.73;;
10493;SDS011;5294;49.410;8.698;2023-02-12T12:05:43;5.47;;;4.97;;
10493;SDS011;5294;49.410;8.698;2023-02-12T12:11:02;5.10;;;4.70;;
10493;SDS011;5294;49.410;8.698;2023-02-12T12:13:35;5.87;;;5.27;;
10493;SDS011;5294;49.410;8.698;2023-02-12T12:16:07;4.37;;;4.07;;
10493;SDS011;5294;49.410;8.698;2023-02-12T12:19:02;4.40;;;4.10;;
10493;SDS011;5294;49.410;8.698;2023-02-12T12:24:34;4.47;;;4.10;;
10493;SDS011;5294;49.410;8.698;2023-02-12T12:27:22;4.63;;;4.20;;
10493;SDS011;5294;49.410;8.698;2023-02-12T12:30:14;4.77;;;4.47;;
10493;SDS011;5294;49.410;8.698;2023-02-12T12:32:45;3.83;;;3.53;;
10493;SDS011;5294;49.410;8.698;2023-02-12T12:35:13;4.30;;;4.00;;
10493;SDS011;5294;49.410;8.698;2023-02-12T12:37:51;4.80;;;4.37;;
10493;SDS011;5294;49.410;8.698;2023-02-12T12:46:07;4.10;;;3.70;;
10493;SDS011;5294;49.410;8.698;2023-02-12T12:51:29;3.47;;;3.27;;
10493;SDS011;5294;49.410;8.698;2023-02-12T12:56:42;3.77;;;3.50;;
10493;SDS011;5294;49.410;8.698;2023-02-12T13:07:12;3.90;;;3.60;;
10493;SDS011;5294;49.410;8.698;2023-02-12T13:14:47;3.93;;;3.63;;
10493;SDS011;5294;49.410;8.698;2023-02-12T13:17:18;4.40;;;4.00;;
10493;SDS011;5294;49.410;8.698;2023-02-12T13:22:22;3.73;;;3.43;;
10493;SDS011;5294;49.410;8.698;2023-02-12T13:25:00;3.50;;;3.30;;
10493;SDS011;5294;49.410;8.698;2023-02-12T13:27:30;3.40;;;3.20;;
10493;SDS011;5294;49.410;8.698;2023-02-12T13:30:05;3.87;;;3.40;;
10493;SDS011;5294;49.410;8.698;2023-02-12T13:32:33;3.80;;;3.50;;
10493;SDS011;5294;49.410;8.698;2023-02-12T13:35:05;3.17;;;2.97;;
10493;SDS011;5294;49.410;8.698;2023-02-12T13:37:34;3.80;;;3.50;;
10493;SDS011;5294;49.410;8.698;2023-02-12T13:40:02;4.07;;;3.77;;
10493;SDS011;5294;49.410;8.698;2023-02-12T13:46:02;4.00;;;3.70;;
10493;SDS011;5294;49.410;8.698;2023-02-12T13:55:54;3.90;;;3.60;;
10493;SDS011;5294;49.410;8.698;2023-02-12T14:03:35;3.40;;;3.20;;
10493;SDS011;5294;49.410;8.698;2023-02-12T14:08:40;3.80;;;3.50;;
10493;SDS011;5294;49.410;8.698;2023-02-12T14:11:10;3.63;;;3.40;;
10493;SDS011;5294;49.410;8.698;2023-02-12T14:18:47;4.03;;;3.73;;
10493;SDS011;5294;49.410;8.698;2023-02-12T14:23:44;3.80;;;3.50;;
10493;SDS011;5294;49.410;8.698;2023-02-12T14:26:12;3.83;;;3.53;;
10493;SDS011;5294;49.410;8.698;2023-02-12T14:34:33;4.07;;;3.77;;
10493;SDS011;5294;49.410;8.698;2023-02-12T14:36:36;3.70;;;3.40;;
10493;SDS011;5294;49.410;8.698;2023-02-12T14:41:52;3.77;;;3.47;;
10493;SDS011;5294;49.410;8.698;2023-02-12T14:46:47;3.50;;;3.30;;
10493;SDS011;5294;49.410;8.698;2023-02-12T14:51:52;4.10;;;3.80;;
10493;SDS011;5294;49.410;8.698;2023-02-12T14:59:42;4.10;;;3.80;;
10493;SDS011;5294;49.410;8.698;2023-02-12T15:04:50;4.03;;;3.73;;
10493;SDS011;5294;49.410;8.698;2023-02-12T15:07:38;4.40;;;4.00;;
10493;SDS011;5294;49.410;8.698;2023-02-12T15:10:12;4.23;;;3.83;;
10493;SDS011;5294;49.410;8.698;2023-02-12T15:12:41;3.60;;;3.40;;
10493;SDS011;5294;49.410;8.698;2023-02-12T15:17:38;3.70;;;3.40;;
10493;SDS011;5294;49.410;8.698;2023-02-12T15:20:12;3.37;;;3.17;;
10493;SDS011;5294;49.410;8.698;2023-02-12T15:22:44;4.30;;;3.90;;
10493;SDS011;5294;49.410;8.698;2023-02-12T15:25:24;4.43;;;4.03;;
10493;SDS011;5294;49.410;8.698;2023-02-12T15:27:52;4.00;;;3.70;;
10493;SDS011;5294;49.410;8.698;2023-02-12T15:30:19;4.30;;;4.00;;
10493;SDS011;5294;49.410;8.698;2023-02-12T15:32:49;3.70;;;3.40;;
10493;SDS011;5294;49.410;8.698;2023-02-12T15:35:21;4.40;;;4.00;;
10493;SDS011;5294;49.410;8.698;2023-02-12T15:37:51;5.23;;;4.73;;
10493;SDS011;5294;49.410;8.698;2023-02-12T15:40:17;4.67;;;4.27;;
10493;SDS011;5294;49.410;8.698;2023-02-12T15:42:54;5.37;;;4.87;;
10493;SDS011;5294;49.410;8.698;2023-02-12T15:45:27;4.80;;;4.40;;
10493;SDS011;5294;49.410;8.698;2023-02-12T15:47:56;6.53;;;5.93;;
10493;SDS011;5294;49.410;8.698;2023-02-12T15:50:24;7.33;;;6.63;;
10493;SDS011;5294;49.410;8.698;2023-02-12T15:52:50;7.87;;;7.07;;
10493;SDS011;5294;49.410;8.698;2023-02-12T15:55:21;8.50;;;7.03;;
10493;SDS011;5294;49.410;8.698;2023-02-12T15:57:56;9.33;;;8.40;;
10493;SDS011;5294;49.410;8.698;2023-02-12T16:02:53;8.53;;;7.73;;
10493;SDS011;5294;49.410;8.698;2023-02-12T16:05:20;9.73;;;8.73;;
10493;SDS011;5294;49.410;8.698;2023-02-12T16:07:48;9.87;;;8.83;;
10493;SDS011;5294;49.410;8.698;2023-02-12T16:10:15;10.67;;;9.57;;
10493;SDS011;5294;49.410;8.698;2023-02-12T16:12:42;10.17;;;9.20;;
10493;SDS011;5294;49.410;8.698;2023-02-12T16:18:21;10.33;;;9.37;;
10493;SDS011;5294;49.410;8.698;2023-02-12T16:20:48;10.07;;;9.07;;
10493;SDS011;5294;49.410;8.698;2023-02-12T16:23:14;11.07;;;10.07;;
10493;SDS011;5294;49.410;8.698;2023-02-12T16:25:41;11.90;;;10.70;;
10493;SDS011;5294;49.410;8.698;2023-02-12T16:28:16;12.90;;;10.23;;
10493;SDS011;5294;49.410;8.698;2023-02-12T16:30:42;11.23;;;10.07;;
10493;SDS011;5294;49.410;8.698;2023-02-12T16:36:01;11.37;;;10.23;;
10493;SDS011;5294;49.410;8.698;2023-02-12T16:43:36;12.13;;;10.93;;
10493;SDS011;5294;49.410;8.698;2023-02-12T16:46:03;12.47;;;11.17;;
10493;SDS011;5294;49.410;8.698;2023-02-12T16:48:51;11.70;;;10.50;;
10493;SDS011;5294;49.410;8.698;2023-02-12T16:51:21;10.53;;;9.47;;
10493;SDS011;5294;49.410;8.698;2023-02-12T16:53:50;10.67;;;9.67;;
10493;SDS011;5294;49.410;8.698;2023-02-12T16:56:18;11.30;;;10.10;;
10493;SDS011;5294;49.410;8.698;2023-02-12T16:58:45;11.63;;;10.40;;
10493;SDS011;5294;49.410;8.698;2023-02-12T17:01:18;12.63;;;11.27;;
10493;SDS011;5294;49.410;8.698;2023-02-12T17:03:47;12.33;;;10.90;;
10493;SDS011;5294;49.410;8.698;2023-02-12T17:06:15;15.47;;;13.43;;
10493;SDS011;5294;49.410;8.698;2023-02-12T17:08:43;12.93;;;11.63;;
10493;SDS011;5294;49.410;8.698;2023-02-12T17:11:09;11.40;;;10.23;;
10493;SDS011;5294;49.410;8.698;2023-02-12T17:13:39;11.17;;;10.07;;
10493;SDS011;5294;49.410;8.698;2023-02-12T17:16:05;13.13;;;10.30;;
10493;SDS011;5294;49.410;8.698;2023-02-12T17:18:31;11.27;;;10.17;;
10493;SDS011;5294;49.410;8.698;2023-02-12T17:23:44;11.13;;;9.97;;
10493;SDS011;5294;49.410;8.698;2023-02-12T17:26:13;11.87;;;10.67;;
10493;SDS011;5294;49.410;8.698;2023-02-12T17:28:41;11.93;;;10.73;;
10493;SDS011;5294;49.410;8.698;2023-02-12T17:31:07;13.10;;;10.60;;
10493;SDS011;5294;49.410;8.698;2023-02-12T17:33:34;14.37;;;11.77;;
10493;SDS011;5294;49.410;8.698;2023-02-12T17:36:03;11.93;;;10.73;;
10493;SDS011;5294;49.410;8.698;2023-02-12T17:38:29;12.07;;;10.77;;
10493;SDS011;5294;49.410;8.698;2023-02-12T17:40:55;12.07;;;10.77;;
10493;SDS011;5294;49.410;8.698;2023-02-12T17:43:23;12.60;;;11.07;;
10493;SDS011;5294;49.410;8.698;2023-02-12T17:45:51;12.43;;;11.07;;
10493;SDS011;5294;49.410;8.698;2023-02-12T17:48:20;12.17;;;10.60;;
10493;SDS011;5294;49.410;8.698;2023-02-12T17:50:52;11.10;;;10.00;;
10493;SDS011;5294;49.410;8.698;2023-02-12T17:53:21;12.87;;;11.10;;
10493;SDS011;5294;49.410;8.698;2023-02-12T17:55:47;12.33;;;11.13;;
10493;SDS011;5294;49.410;8.698;2023-02-12T17:58:13;11.10;;;9.87;;